sensor_id;sensor_type;location;lat;lon;timestamp;temperature;humidity
37910;DHT22;23741;49.446;8.754;2022-12-29T00:00:05;14.40;62.30
37910;DHT22;23741;49.446;8.754;2022-12-29T00:02:13;14.40;62.40
37910;DHT22;23741;49.446;8.754;2022-12-29T00:04:15;14.50;62.80
37910;DHT22;23741;49.446;8.754;2022-12-29T00:06:16;14.50;62.50
37910;DHT22;23741;49.446;8.754;2022-12-29T00:08:18;14.50;62.30
37910;DHT22;23741;49.446;8.754;2022-12-29T00:10:20;14.50;63.20
37910;DHT22;23741;49.446;8.754;2022-12-29T00:12:21;14.50;62.40
37910;DHT22;23741;49.446;8.754;2022-12-29T00:14:23;14.50;62.70
37910;DHT22;23741;49.446;8.754;2022-12-29T00:16:44;14.50;62.40
37910;DHT22;23741;49.446;8.754;2022-12-29T00:18:46;14.50;62.10
37910;DHT22;23741;49.446;8.754;2022-12-29T00:20:48;14.50;62.70
37910;DHT22;23741;49.446;8.754;2022-12-29T00:23:08;14.50;62.20
37910;DHT22;23741;49.446;8.754;2022-12-29T00:25:29;14.50;62.40
37910;DHT22;23741;49.446;8.754;2022-12-29T00:27:49;14.50;62.40
37910;DHT22;23741;49.446;8.754;2022-12-29T00:30:10;14.50;62.40
37910;DHT22;23741;49.446;8.754;2022-12-29T00:32:30;14.50;62.30
37910;DHT22;23741;49.446;8.754;2022-12-29T00:34:50;14.50;62.40
37910;DHT22;23741;49.446;8.754;2022-12-29T00:37:10;14.50;62.50
37910;DHT22;23741;49.446;8.754;2022-12-29T00:39:12;14.50;62.20
37910;DHT22;23741;49.446;8.754;2022-12-29T00:41:34;14.50;62.10
37910;DHT22;23741;49.446;8.754;2022-12-29T00:43:54;14.50;62.30
37910;DHT22;23741;49.446;8.754;2022-12-29T00:46:08;14.50;62.20
37910;DHT22;23741;49.446;8.754;2022-12-29T00:48:18;14.50;62.10
37910;DHT22;23741;49.446;8.754;2022-12-29T00:50:38;14.50;62.30
37910;DHT22;23741;49.446;8.754;2022-12-29T00:52:39;14.50;62.20
37910;DHT22;23741;49.446;8.754;2022-12-29T00:54:41;14.50;62.20
37910;DHT22;23741;49.446;8.754;2022-12-29T00:56:47;14.50;62.50
37910;DHT22;23741;49.446;8.754;2022-12-29T00:58:50;14.50;62.20
37910;DHT22;23741;49.446;8.754;2022-12-29T01:00:52;14.50;62.30
37910;DHT22;23741;49.446;8.754;2022-12-29T01:02:54;14.50;62.40
37910;DHT22;23741;49.446;8.754;2022-12-29T01:04:56;14.50;62.20
37910;DHT22;23741;49.446;8.754;2022-12-29T01:06:58;14.50;62.20
37910;DHT22;23741;49.446;8.754;2022-12-29T01:08:59;14.50;62.00
37910;DHT22;23741;49.446;8.754;2022-12-29T01:11:20;14.50;62.10
37910;DHT22;23741;49.446;8.754;2022-12-29T01:13:21;14.50;62.20
37910;DHT22;23741;49.446;8.754;2022-12-29T01:15:24;14.60;62.10
37910;DHT22;23741;49.446;8.754;2022-12-29T01:17:26;14.50;61.80
37910;DHT22;23741;49.446;8.754;2022-12-29T01:19:29;14.50;62.00
37910;DHT22;23741;49.446;8.754;2022-12-29T01:21:31;14.50;62.10
37910;DHT22;23741;49.446;8.754;2022-12-29T01:23:34;14.50;62.10
37910;DHT22;23741;49.446;8.754;2022-12-29T01:25:35;14.50;62.30
37910;DHT22;23741;49.446;8.754;2022-12-29T01:27:37;14.50;62.40
37910;DHT22;23741;49.446;8.754;2022-12-29T01:29:39;14.50;62.60
37910;DHT22;23741;49.446;8.754;2022-12-29T01:31:40;14.50;62.40
37910;DHT22;23741;49.446;8.754;2022-12-29T01:33:43;14.50;62.20
37910;DHT22;23741;49.446;8.754;2022-12-29T01:35:45;14.50;62.30
37910;DHT22;23741;49.446;8.754;2022-12-29T01:37:47;14.50;62.10
37910;DHT22;23741;49.446;8.754;2022-12-29T01:39:49;14.50;62.30
37910;DHT22;23741;49.446;8.754;2022-12-29T01:41:51;14.50;62.50
37910;DHT22;23741;49.446;8.754;2022-12-29T01:43:56;14.50;62.60
37910;DHT22;23741;49.446;8.754;2022-12-29T01:45:59;14.50;62.50
37910;DHT22;23741;49.446;8.754;2022-12-29T01:48:01;14.50;62.50
37910;DHT22;23741;49.446;8.754;2022-12-29T01:50:07;14.50;62.70
37910;DHT22;23741;49.446;8.754;2022-12-29T01:52:11;14.50;62.80
37910;DHT22;23741;49.446;8.754;2022-12-29T01:54:18;14.50;62.80
37910;DHT22;23741;49.446;8.754;2022-12-29T01:56:23;14.50;63.00
37910;DHT22;23741;49.446;8.754;2022-12-29T01:58:26;14.50;63.00
37910;DHT22;23741;49.446;8.754;2022-12-29T02:00:31;14.50;63.10
37910;DHT22;23741;49.446;8.754;2022-12-29T02:02:33;14.50;63.10
37910;DHT22;23741;49.446;8.754;2022-12-29T02:04:35;14.50;63.10
37910;DHT22;23741;49.446;8.754;2022-12-29T02:06:42;14.50;63.20
37910;DHT22;23741;49.446;8.754;2022-12-29T02:08:46;14.60;63.30
37910;DHT22;23741;49.446;8.754;2022-12-29T02:10:48;14.50;63.40
37910;DHT22;23741;49.446;8.754;2022-12-29T02:12:50;14.50;63.50
37910;DHT22;23741;49.446;8.754;2022-12-29T02:14:57;14.60;63.80
37910;DHT22;23741;49.446;8.754;2022-12-29T02:19:28;14.50;63.90
37910;DHT22;23741;49.446;8.754;2022-12-29T02:33:00;14.40;64.60
37910;DHT22;23741;49.446;8.754;2022-12-29T02:35:07;14.40;64.30
37910;DHT22;23741;49.446;8.754;2022-12-29T02:39:19;14.40;64.70
37910;DHT22;23741;49.446;8.754;2022-12-29T02:45:54;14.40;64.70
37910;DHT22;23741;49.446;8.754;2022-12-29T02:50:18;14.40;64.70
37910;DHT22;23741;49.446;8.754;2022-12-29T02:52:44;14.40;65.00
37910;DHT22;23741;49.446;8.754;2022-12-29T02:54:44;14.40;65.10
37910;DHT22;23741;49.446;8.754;2022-12-29T02:56:47;14.40;65.10
37910;DHT22;23741;49.446;8.754;2022-12-29T02:58:48;14.40;65.80
37910;DHT22;23741;49.446;8.754;2022-12-29T03:05:22;14.40;65.10
37910;DHT22;23741;49.446;8.754;2022-12-29T03:09:50;14.40;65.10
37910;DHT22;23741;49.446;8.754;2022-12-29T03:12:03;14.30;65.00
37910;DHT22;23741;49.446;8.754;2022-12-29T03:14:14;14.40;65.10
37910;DHT22;23741;49.446;8.754;2022-12-29T03:18:46;14.30;64.90
37910;DHT22;23741;49.446;8.754;2022-12-29T03:20:56;14.30;65.10
37910;DHT22;23741;49.446;8.754;2022-12-29T03:23:00;14.40;65.20
37910;DHT22;23741;49.446;8.754;2022-12-29T03:25:15;14.30;65.00
37910;DHT22;23741;49.446;8.754;2022-12-29T03:27:22;14.30;65.10
37910;DHT22;23741;49.446;8.754;2022-12-29T03:29:25;14.30;65.10
37910;DHT22;23741;49.446;8.754;2022-12-29T03:31:29;14.30;65.10
37910;DHT22;23741;49.446;8.754;2022-12-29T03:33:31;14.30;65.20
37910;DHT22;23741;49.446;8.754;2022-12-29T03:35:37;14.30;65.20
37910;DHT22;23741;49.446;8.754;2022-12-29T03:38:06;14.30;65.20
37910;DHT22;23741;49.446;8.754;2022-12-29T03:40:06;14.40;65.20
37910;DHT22;23741;49.446;8.754;2022-12-29T03:42:10;14.40;65.20
37910;DHT22;23741;49.446;8.754;2022-12-29T03:44:13;14.40;65.20
37910;DHT22;23741;49.446;8.754;2022-12-29T03:46:15;14.40;65.10
37910;DHT22;23741;49.446;8.754;2022-12-29T03:48:16;14.40;65.10
37910;DHT22;23741;49.446;8.754;2022-12-29T03:50:19;14.40;65.10
37910;DHT22;23741;49.446;8.754;2022-12-29T03:52:21;14.40;65.10
37910;DHT22;23741;49.446;8.754;2022-12-29T03:54:25;14.40;65.20
37910;DHT22;23741;49.446;8.754;2022-12-29T03:56:27;14.40;65.00
37910;DHT22;23741;49.446;8.754;2022-12-29T03:58:28;14.40;65.00
37910;DHT22;23741;49.446;8.754;2022-12-29T04:00:53;14.40;65.00
37910;DHT22;23741;49.446;8.754;2022-12-29T04:02:55;14.40;65.00
37910;DHT22;23741;49.446;8.754;2022-12-29T04:04:57;14.40;65.00
37910;DHT22;23741;49.446;8.754;2022-12-29T04:06:59;14.40;64.90
37910;DHT22;23741;49.446;8.754;2022-12-29T04:09:01;14.40;64.90
37910;DHT22;23741;49.446;8.754;2022-12-29T04:11:06;14.40;64.90
37910;DHT22;23741;49.446;8.754;2022-12-29T04:13:08;14.40;64.90
37910;DHT22;23741;49.446;8.754;2022-12-29T04:15:10;14.40;64.90
37910;DHT22;23741;49.446;8.754;2022-12-29T04:17:12;14.40;64.90
37910;DHT22;23741;49.446;8.754;2022-12-29T04:19:15;14.40;64.80
37910;DHT22;23741;49.446;8.754;2022-12-29T04:21:19;14.50;64.90
37910;DHT22;23741;49.446;8.754;2022-12-29T04:23:22;14.50;64.90
37910;DHT22;23741;49.446;8.754;2022-12-29T04:25:23;14.50;65.00
37910;DHT22;23741;49.446;8.754;2022-12-29T04:27:25;14.50;64.80
37910;DHT22;23741;49.446;8.754;2022-12-29T04:29:47;14.50;64.80
37910;DHT22;23741;49.446;8.754;2022-12-29T04:32:15;14.50;64.80
37910;DHT22;23741;49.446;8.754;2022-12-29T04:34:22;14.50;64.70
37910;DHT22;23741;49.446;8.754;2022-12-29T04:36:23;14.50;64.70
37910;DHT22;23741;49.446;8.754;2022-12-29T04:38:30;14.50;64.60
37910;DHT22;23741;49.446;8.754;2022-12-29T04:40:34;14.50;64.60
37910;DHT22;23741;49.446;8.754;2022-12-29T04:42:35;14.50;64.60
37910;DHT22;23741;49.446;8.754;2022-12-29T04:44:37;14.50;64.50
37910;DHT22;23741;49.446;8.754;2022-12-29T04:46:51;14.60;64.50
37910;DHT22;23741;49.446;8.754;2022-12-29T04:49:16;14.60;64.60
37910;DHT22;23741;49.446;8.754;2022-12-29T04:51:29;14.60;64.50
37910;DHT22;23741;49.446;8.754;2022-12-29T04:53:31;14.60;64.40
37910;DHT22;23741;49.446;8.754;2022-12-29T04:55:34;14.60;64.40
37910;DHT22;23741;49.446;8.754;2022-12-29T04:57:35;14.60;64.50
37910;DHT22;23741;49.446;8.754;2022-12-29T04:59:37;14.60;64.20
37910;DHT22;23741;49.446;8.754;2022-12-29T05:01:39;14.60;64.30
37910;DHT22;23741;49.446;8.754;2022-12-29T05:03:41;14.60;64.40
37910;DHT22;23741;49.446;8.754;2022-12-29T05:05:43;14.60;64.10
37910;DHT22;23741;49.446;8.754;2022-12-29T05:07:45;14.60;64.20
37910;DHT22;23741;49.446;8.754;2022-12-29T05:09:47;14.60;64.20
37910;DHT22;23741;49.446;8.754;2022-12-29T05:11:49;14.60;64.20
37910;DHT22;23741;49.446;8.754;2022-12-29T05:13:51;14.60;64.20
37910;DHT22;23741;49.446;8.754;2022-12-29T05:15:53;14.60;64.10
37910;DHT22;23741;49.446;8.754;2022-12-29T05:17:57;14.70;64.10
37910;DHT22;23741;49.446;8.754;2022-12-29T05:19:59;14.70;64.10
37910;DHT22;23741;49.446;8.754;2022-12-29T05:22:00;14.60;63.90
37910;DHT22;23741;49.446;8.754;2022-12-29T05:24:04;14.60;63.90
37910;DHT22;23741;49.446;8.754;2022-12-29T05:26:05;14.70;64.00
37910;DHT22;23741;49.446;8.754;2022-12-29T05:28:43;14.70;63.90
37910;DHT22;23741;49.446;8.754;2022-12-29T05:30:49;14.70;63.90
37910;DHT22;23741;49.446;8.754;2022-12-29T05:32:52;14.70;63.90
37910;DHT22;23741;49.446;8.754;2022-12-29T05:34:54;14.70;63.80
37910;DHT22;23741;49.446;8.754;2022-12-29T05:36:56;14.70;63.50
37910;DHT22;23741;49.446;8.754;2022-12-29T05:38:58;14.70;63.70
37910;DHT22;23741;49.446;8.754;2022-12-29T05:40:59;14.70;63.80
37910;DHT22;23741;49.446;8.754;2022-12-29T05:43:27;14.70;63.80
37910;DHT22;23741;49.446;8.754;2022-12-29T05:45:55;14.70;63.80
37910;DHT22;23741;49.446;8.754;2022-12-29T05:48:03;14.70;63.60
37910;DHT22;23741;49.446;8.754;2022-12-29T05:50:37;14.70;63.40
37910;DHT22;23741;49.446;8.754;2022-12-29T05:52:49;14.70;63.50
37910;DHT22;23741;49.446;8.754;2022-12-29T05:54:51;14.70;63.70
37910;DHT22;23741;49.446;8.754;2022-12-29T05:56:55;14.70;63.70
37910;DHT22;23741;49.446;8.754;2022-12-29T05:58:57;14.70;63.40
37910;DHT22;23741;49.446;8.754;2022-12-29T06:00:58;14.70;63.50
37910;DHT22;23741;49.446;8.754;2022-12-29T06:03:01;14.70;63.70
37910;DHT22;23741;49.446;8.754;2022-12-29T06:05:03;14.80;63.50
37910;DHT22;23741;49.446;8.754;2022-12-29T06:07:05;14.80;63.70
37910;DHT22;23741;49.446;8.754;2022-12-29T06:09:15;14.80;63.60
37910;DHT22;23741;49.446;8.754;2022-12-29T06:11:17;14.80;63.60
37910;DHT22;23741;49.446;8.754;2022-12-29T06:13:25;14.80;63.70
37910;DHT22;23741;49.446;8.754;2022-12-29T06:15:27;14.80;63.80
37910;DHT22;23741;49.446;8.754;2022-12-29T06:17:29;14.90;63.50
37910;DHT22;23741;49.446;8.754;2022-12-29T06:19:30;14.80;63.70
37910;DHT22;23741;49.446;8.754;2022-12-29T06:21:32;14.80;63.60
37910;DHT22;23741;49.446;8.754;2022-12-29T06:23:35;14.80;63.20
37910;DHT22;23741;49.446;8.754;2022-12-29T06:25:38;14.90;63.50
37910;DHT22;23741;49.446;8.754;2022-12-29T06:27:40;14.80;63.40
37910;DHT22;23741;49.446;8.754;2022-12-29T06:29:42;14.80;63.00
37910;DHT22;23741;49.446;8.754;2022-12-29T06:31:44;14.80;63.20
37910;DHT22;23741;49.446;8.754;2022-12-29T06:33:50;14.80;63.40
37910;DHT22;23741;49.446;8.754;2022-12-29T06:35:52;14.80;63.50
37910;DHT22;23741;49.446;8.754;2022-12-29T06:37:53;14.80;63.50
37910;DHT22;23741;49.446;8.754;2022-12-29T06:39:55;14.80;63.30
37910;DHT22;23741;49.446;8.754;2022-12-29T06:42:01;14.80;63.40
37910;DHT22;23741;49.446;8.754;2022-12-29T06:44:17;14.80;63.50
37910;DHT22;23741;49.446;8.754;2022-12-29T06:46:23;14.80;63.60
37910;DHT22;23741;49.446;8.754;2022-12-29T06:48:25;14.80;63.40
37910;DHT22;23741;49.446;8.754;2022-12-29T06:50:27;14.80;63.20
37910;DHT22;23741;49.446;8.754;2022-12-29T06:52:28;14.80;63.30
37910;DHT22;23741;49.446;8.754;2022-12-29T06:54:30;14.80;63.20
37910;DHT22;23741;49.446;8.754;2022-12-29T06:56:32;14.80;63.00
37910;DHT22;23741;49.446;8.754;2022-12-29T06:58:33;14.80;63.20
37910;DHT22;23741;49.446;8.754;2022-12-29T07:00:35;14.80;63.20
37910;DHT22;23741;49.446;8.754;2022-12-29T07:02:37;14.80;63.20
37910;DHT22;23741;49.446;8.754;2022-12-29T07:04:39;14.80;63.20
37910;DHT22;23741;49.446;8.754;2022-12-29T07:06:40;14.90;63.30
37910;DHT22;23741;49.446;8.754;2022-12-29T07:08:42;14.80;63.20
37910;DHT22;23741;49.446;8.754;2022-12-29T07:10:44;14.80;63.20
37910;DHT22;23741;49.446;8.754;2022-12-29T07:12:45;14.80;63.00
37910;DHT22;23741;49.446;8.754;2022-12-29T07:14:47;14.80;63.10
37910;DHT22;23741;49.446;8.754;2022-12-29T07:16:49;14.80;63.10
37910;DHT22;23741;49.446;8.754;2022-12-29T07:18:50;14.80;63.10
37910;DHT22;23741;49.446;8.754;2022-12-29T07:20:53;14.80;63.20
37910;DHT22;23741;49.446;8.754;2022-12-29T07:22:54;14.80;63.20
37910;DHT22;23741;49.446;8.754;2022-12-29T07:24:56;14.80;63.20
37910;DHT22;23741;49.446;8.754;2022-12-29T07:26:58;14.90;63.20
37910;DHT22;23741;49.446;8.754;2022-12-29T07:29:00;14.90;63.20
37910;DHT22;23741;49.446;8.754;2022-12-29T07:31:02;14.90;63.30
37910;DHT22;23741;49.446;8.754;2022-12-29T07:33:03;14.90;63.00
37910;DHT22;23741;49.446;8.754;2022-12-29T07:35:05;14.90;63.00
37910;DHT22;23741;49.446;8.754;2022-12-29T07:37:07;14.90;63.00
37910;DHT22;23741;49.446;8.754;2022-12-29T07:39:09;14.90;63.10
37910;DHT22;23741;49.446;8.754;2022-12-29T07:41:10;14.90;63.10
37910;DHT22;23741;49.446;8.754;2022-12-29T07:43:12;14.90;62.90
37910;DHT22;23741;49.446;8.754;2022-12-29T07:45:21;15.00;62.10
37910;DHT22;23741;49.446;8.754;2022-12-29T07:47:37;14.90;62.80
37910;DHT22;23741;49.446;8.754;2022-12-29T07:49:38;14.90;62.90
37910;DHT22;23741;49.446;8.754;2022-12-29T07:51:40;14.90;62.80
37910;DHT22;23741;49.446;8.754;2022-12-29T07:53:42;14.90;62.70
37910;DHT22;23741;49.446;8.754;2022-12-29T07:55:43;14.90;62.90
37910;DHT22;23741;49.446;8.754;2022-12-29T07:57:45;14.90;62.70
37910;DHT22;23741;49.446;8.754;2022-12-29T07:59:47;14.90;62.70
37910;DHT22;23741;49.446;8.754;2022-12-29T08:01:49;14.90;62.70
37910;DHT22;23741;49.446;8.754;2022-12-29T08:03:50;14.90;62.50
37910;DHT22;23741;49.446;8.754;2022-12-29T08:05:58;14.90;62.70
37910;DHT22;23741;49.446;8.754;2022-12-29T08:07:59;15.00;62.70
37910;DHT22;23741;49.446;8.754;2022-12-29T08:10:01;15.00;63.50
37910;DHT22;23741;49.446;8.754;2022-12-29T08:12:03;15.00;62.50
37910;DHT22;23741;49.446;8.754;2022-12-29T08:14:05;15.00;62.80
37910;DHT22;23741;49.446;8.754;2022-12-29T08:16:06;15.00;62.90
37910;DHT22;23741;49.446;8.754;2022-12-29T08:18:08;15.00;62.70
37910;DHT22;23741;49.446;8.754;2022-12-29T08:20:10;15.00;62.60
37910;DHT22;23741;49.446;8.754;2022-12-29T08:22:13;15.00;62.70
37910;DHT22;23741;49.446;8.754;2022-12-29T08:24:14;15.00;62.70
37910;DHT22;23741;49.446;8.754;2022-12-29T08:26:16;15.00;62.60
37910;DHT22;23741;49.446;8.754;2022-12-29T08:28:18;15.00;62.30
37910;DHT22;23741;49.446;8.754;2022-12-29T08:30:19;15.00;62.50
37910;DHT22;23741;49.446;8.754;2022-12-29T08:32:21;15.00;62.50
37910;DHT22;23741;49.446;8.754;2022-12-29T08:34:23;15.10;62.60
37910;DHT22;23741;49.446;8.754;2022-12-29T08:36:25;15.00;62.40
37910;DHT22;23741;49.446;8.754;2022-12-29T08:38:27;15.10;62.30
37910;DHT22;23741;49.446;8.754;2022-12-29T08:40:29;15.10;62.20
37910;DHT22;23741;49.446;8.754;2022-12-29T08:42:31;15.10;62.40
37910;DHT22;23741;49.446;8.754;2022-12-29T08:44:32;15.10;62.50
37910;DHT22;23741;49.446;8.754;2022-12-29T08:46:34;15.10;62.40
37910;DHT22;23741;49.446;8.754;2022-12-29T08:48:36;15.10;62.20
37910;DHT22;23741;49.446;8.754;2022-12-29T08:50:38;15.10;62.10
37910;DHT22;23741;49.446;8.754;2022-12-29T08:52:40;15.10;62.00
37910;DHT22;23741;49.446;8.754;2022-12-29T08:54:41;15.10;62.00
37910;DHT22;23741;49.446;8.754;2022-12-29T08:56:43;15.10;61.90
37910;DHT22;23741;49.446;8.754;2022-12-29T08:58:45;15.10;62.10
37910;DHT22;23741;49.446;8.754;2022-12-29T09:00:46;15.10;62.20
37910;DHT22;23741;49.446;8.754;2022-12-29T09:02:48;15.10;62.30
37910;DHT22;23741;49.446;8.754;2022-12-29T09:04:51;15.10;62.20
37910;DHT22;23741;49.446;8.754;2022-12-29T09:06:52;15.20;62.00
37910;DHT22;23741;49.446;8.754;2022-12-29T09:08:54;15.20;62.00
37910;DHT22;23741;49.446;8.754;2022-12-29T09:11:05;15.20;62.10
37910;DHT22;23741;49.446;8.754;2022-12-29T09:13:06;15.20;62.20
37910;DHT22;23741;49.446;8.754;2022-12-29T09:15:08;15.20;62.20
37910;DHT22;23741;49.446;8.754;2022-12-29T09:17:10;15.20;62.40
37910;DHT22;23741;49.446;8.754;2022-12-29T09:19:30;15.20;62.20
37910;DHT22;23741;49.446;8.754;2022-12-29T09:21:32;15.30;62.20
37910;DHT22;23741;49.446;8.754;2022-12-29T09:23:34;15.20;62.00
37910;DHT22;23741;49.446;8.754;2022-12-29T09:25:35;15.20;62.00
37910;DHT22;23741;49.446;8.754;2022-12-29T09:27:37;15.20;61.90
37910;DHT22;23741;49.446;8.754;2022-12-29T09:29:39;15.20;61.70
37910;DHT22;23741;49.446;8.754;2022-12-29T09:31:40;15.20;61.50
37910;DHT22;23741;49.446;8.754;2022-12-29T09:33:42;15.20;61.80
37910;DHT22;23741;49.446;8.754;2022-12-29T09:35:45;15.20;61.70
37910;DHT22;23741;49.446;8.754;2022-12-29T09:37:47;15.30;61.50
37910;DHT22;23741;49.446;8.754;2022-12-29T09:39:49;15.20;61.80
37910;DHT22;23741;49.446;8.754;2022-12-29T09:42:00;15.20;61.90
37910;DHT22;23741;49.446;8.754;2022-12-29T09:44:08;15.30;61.90
37910;DHT22;23741;49.446;8.754;2022-12-29T09:46:20;15.30;62.00
37910;DHT22;23741;49.446;8.754;2022-12-29T09:48:26;15.30;62.00
37910;DHT22;23741;49.446;8.754;2022-12-29T09:50:30;15.20;61.80
37910;DHT22;23741;49.446;8.754;2022-12-29T09:52:35;15.30;62.00
37910;DHT22;23741;49.446;8.754;2022-12-29T09:54:44;15.30;62.10
37910;DHT22;23741;49.446;8.754;2022-12-29T09:57:00;15.20;61.90
37910;DHT22;23741;49.446;8.754;2022-12-29T09:59:08;15.20;62.00
37910;DHT22;23741;49.446;8.754;2022-12-29T10:08:22;15.20;62.20
37910;DHT22;23741;49.446;8.754;2022-12-29T10:10:38;15.20;62.20
37910;DHT22;23741;49.446;8.754;2022-12-29T10:23:45;15.20;62.60
37910;DHT22;23741;49.446;8.754;2022-12-29T10:25:47;15.20;62.70
37910;DHT22;23741;49.446;8.754;2022-12-29T10:27:50;15.20;62.70
37910;DHT22;23741;49.446;8.754;2022-12-29T10:29:53;15.20;62.80
37910;DHT22;23741;49.446;8.754;2022-12-29T10:33:58;15.20;62.80
37910;DHT22;23741;49.446;8.754;2022-12-29T10:36:25;15.20;62.90
37910;DHT22;23741;49.446;8.754;2022-12-29T10:42:37;15.30;62.90
37910;DHT22;23741;49.446;8.754;2022-12-29T10:44:40;15.20;62.80
37910;DHT22;23741;49.446;8.754;2022-12-29T10:46:42;15.20;62.80
37910;DHT22;23741;49.446;8.754;2022-12-29T10:48:45;15.20;62.80
37910;DHT22;23741;49.446;8.754;2022-12-29T10:50:48;15.30;62.80
37910;DHT22;23741;49.446;8.754;2022-12-29T10:53:00;15.20;62.80
37910;DHT22;23741;49.446;8.754;2022-12-29T10:55:19;15.30;62.80
37910;DHT22;23741;49.446;8.754;2022-12-29T10:57:31;15.20;62.70
37910;DHT22;23741;49.446;8.754;2022-12-29T10:59:35;15.20;62.60
37910;DHT22;23741;49.446;8.754;2022-12-29T11:01:46;15.20;62.70
37910;DHT22;23741;49.446;8.754;2022-12-29T11:05:55;15.20;62.90
37910;DHT22;23741;49.446;8.754;2022-12-29T11:07:59;15.20;63.00
37910;DHT22;23741;49.446;8.754;2022-12-29T11:12:40;15.20;63.00
37910;DHT22;23741;49.446;8.754;2022-12-29T11:14:42;15.20;63.00
37910;DHT22;23741;49.446;8.754;2022-12-29T11:16:43;15.30;63.00
37910;DHT22;23741;49.446;8.754;2022-12-29T11:18:46;15.20;63.10
37910;DHT22;23741;49.446;8.754;2022-12-29T11:20:50;15.30;63.10
37910;DHT22;23741;49.446;8.754;2022-12-29T11:22:52;15.30;63.20
37910;DHT22;23741;49.446;8.754;2022-12-29T11:24:54;15.40;63.50
37910;DHT22;23741;49.446;8.754;2022-12-29T11:27:15;15.40;63.30
37910;DHT22;23741;49.446;8.754;2022-12-29T11:29:20;15.40;63.50
37910;DHT22;23741;49.446;8.754;2022-12-29T11:31:24;15.50;63.60
37910;DHT22;23741;49.446;8.754;2022-12-29T11:33:29;15.50;63.60
37910;DHT22;23741;49.446;8.754;2022-12-29T11:37:38;15.60;63.40
37910;DHT22;23741;49.446;8.754;2022-12-29T11:39:41;15.70;63.10
37910;DHT22;23741;49.446;8.754;2022-12-29T11:41:46;15.70;63.00
37910;DHT22;23741;49.446;8.754;2022-12-29T11:43:53;15.70;63.00
37910;DHT22;23741;49.446;8.754;2022-12-29T11:45:55;15.70;62.80
37910;DHT22;23741;49.446;8.754;2022-12-29T11:47:59;15.70;62.70
37910;DHT22;23741;49.446;8.754;2022-12-29T11:50:03;15.70;62.60
37910;DHT22;23741;49.446;8.754;2022-12-29T11:52:06;15.70;62.30
37910;DHT22;23741;49.446;8.754;2022-12-29T11:54:09;15.80;62.60
37910;DHT22;23741;49.446;8.754;2022-12-29T11:56:16;15.80;62.60
37910;DHT22;23741;49.446;8.754;2022-12-29T11:58:20;15.70;62.50
37910;DHT22;23741;49.446;8.754;2022-12-29T12:00:23;15.70;62.40
37910;DHT22;23741;49.446;8.754;2022-12-29T12:02:35;15.70;62.30
37910;DHT22;23741;49.446;8.754;2022-12-29T12:04:44;15.70;62.30
37910;DHT22;23741;49.446;8.754;2022-12-29T12:07:10;15.70;62.40
37910;DHT22;23741;49.446;8.754;2022-12-29T12:09:31;15.70;62.40
37910;DHT22;23741;49.446;8.754;2022-12-29T12:11:37;15.70;62.30
37910;DHT22;23741;49.446;8.754;2022-12-29T12:16:18;15.70;62.20
37910;DHT22;23741;49.446;8.754;2022-12-29T12:20:44;15.60;62.20
37910;DHT22;23741;49.446;8.754;2022-12-29T12:22:49;15.60;62.20
37910;DHT22;23741;49.446;8.754;2022-12-29T12:25:04;15.60;62.30
37910;DHT22;23741;49.446;8.754;2022-12-29T12:27:30;15.50;62.20
37910;DHT22;23741;49.446;8.754;2022-12-29T12:29:41;15.50;62.00
37910;DHT22;23741;49.446;8.754;2022-12-29T12:31:54;15.40;62.00
37910;DHT22;23741;49.446;8.754;2022-12-29T12:33:57;15.40;62.20
37910;DHT22;23741;49.446;8.754;2022-12-29T12:40:49;15.30;62.60
37910;DHT22;23741;49.446;8.754;2022-12-29T12:45:25;15.30;62.90
37910;DHT22;23741;49.446;8.754;2022-12-29T12:56:14;15.20;62.70
37910;DHT22;23741;49.446;8.754;2022-12-29T13:00:27;15.20;62.90
37910;DHT22;23741;49.446;8.754;2022-12-29T13:17:51;15.10;63.20
37910;DHT22;23741;49.446;8.754;2022-12-29T13:28:31;15.10;63.70
37910;DHT22;23741;49.446;8.754;2022-12-29T13:30:46;15.10;63.80
37910;DHT22;23741;49.446;8.754;2022-12-29T13:32:56;15.10;63.70
37910;DHT22;23741;49.446;8.754;2022-12-29T13:35:11;15.00;63.60
37910;DHT22;23741;49.446;8.754;2022-12-29T13:37:17;15.00;63.70
37910;DHT22;23741;49.446;8.754;2022-12-29T13:39:24;15.10;63.90
37910;DHT22;23741;49.446;8.754;2022-12-29T13:41:32;15.00;64.00
37910;DHT22;23741;49.446;8.754;2022-12-29T13:43:36;15.00;63.80
37910;DHT22;23741;49.446;8.754;2022-12-29T13:45:41;15.00;63.90
37910;DHT22;23741;49.446;8.754;2022-12-29T13:47:46;15.10;64.00
37910;DHT22;23741;49.446;8.754;2022-12-29T13:49:50;15.10;64.10
37910;DHT22;23741;49.446;8.754;2022-12-29T13:51:54;15.00;64.10
37910;DHT22;23741;49.446;8.754;2022-12-29T13:56:18;15.00;64.30
37910;DHT22;23741;49.446;8.754;2022-12-29T14:00:27;15.00;64.40
37910;DHT22;23741;49.446;8.754;2022-12-29T14:05:02;15.00;64.40
37910;DHT22;23741;49.446;8.754;2022-12-29T14:07:11;15.00;64.60
37910;DHT22;23741;49.446;8.754;2022-12-29T14:11:37;15.00;64.70
37910;DHT22;23741;49.446;8.754;2022-12-29T14:13:39;15.00;64.70
37910;DHT22;23741;49.446;8.754;2022-12-29T14:15:43;15.00;64.80
37910;DHT22;23741;49.446;8.754;2022-12-29T14:17:55;15.00;64.70
37910;DHT22;23741;49.446;8.754;2022-12-29T14:20:01;15.00;64.70
37910;DHT22;23741;49.446;8.754;2022-12-29T14:22:04;15.00;64.60
37910;DHT22;23741;49.446;8.754;2022-12-29T14:28:35;15.00;64.60
37910;DHT22;23741;49.446;8.754;2022-12-29T14:30:45;14.90;64.40
37910;DHT22;23741;49.446;8.754;2022-12-29T14:33:00;15.00;64.30
37910;DHT22;23741;49.446;8.754;2022-12-29T14:35:49;14.90;64.20
37910;DHT22;23741;49.446;8.754;2022-12-29T14:37:25;14.90;64.30
37910;DHT22;23741;49.446;8.754;2022-12-29T14:39:38;14.90;64.30
37910;DHT22;23741;49.446;8.754;2022-12-29T14:41:40;14.90;64.30
37910;DHT22;23741;49.446;8.754;2022-12-29T14:43:53;14.80;64.30
37910;DHT22;23741;49.446;8.754;2022-12-29T14:45:59;14.80;64.70
37910;DHT22;23741;49.446;8.754;2022-12-29T14:48:02;14.80;64.70
37910;DHT22;23741;49.446;8.754;2022-12-29T14:52:24;14.90;65.30
37910;DHT22;23741;49.446;8.754;2022-12-29T14:56:39;14.70;64.10
37910;DHT22;23741;49.446;8.754;2022-12-29T14:58:43;14.60;64.30
37910;DHT22;23741;49.446;8.754;2022-12-29T15:00:46;14.60;64.70
37910;DHT22;23741;49.446;8.754;2022-12-29T15:02:49;14.60;64.90
37910;DHT22;23741;49.446;8.754;2022-12-29T15:04:53;14.60;65.10
37910;DHT22;23741;49.446;8.754;2022-12-29T15:06:55;14.50;65.10
37910;DHT22;23741;49.446;8.754;2022-12-29T15:11:03;14.50;65.10
37910;DHT22;23741;49.446;8.754;2022-12-29T15:13:12;14.40;65.10
37910;DHT22;23741;49.446;8.754;2022-12-29T15:15:20;14.40;65.20
37910;DHT22;23741;49.446;8.754;2022-12-29T15:17:29;14.40;65.50
37910;DHT22;23741;49.446;8.754;2022-12-29T15:19:31;14.40;65.60
37910;DHT22;23741;49.446;8.754;2022-12-29T15:21:33;14.50;65.60